Aviation Digital Data Service (ADDS)

Output produced by METARs form (1845 UTC 18 June 2019)
found at http://www.aviationweather.gov/metar/data/
 
FABL 181800Z 20002KT CAVOK 06/M02 Q1031 NOSIG
TAF FABL 181600Z 1818/1918 VRB03KT CAVOK TX20/1912Z TN00/1904Z
       
FACT 181800Z 30005KT 270V330 CAVOK 17/06 Q1020 NOSIG
TAF FACT 181600Z 1818/1924 33010KT CAVOK TX22/1912Z TN07/1906Z 
     FM191800 35010KT 9999 FEW008 
     PROB30 
     TEMPO 1920/1924 3000 BR
       
FAEL 181800Z 02009KT 350V050 CAVOK 18/15 Q1030
TAF FAEL 180900Z 1810/1818 VRB02KT 9999 SCT016 TX22/1812Z TN18/1818Z 
     BECMG 1812/1814 06018KT 9999 SCT020
       
FAGG 181819Z AUTO 32004KT CAVOK 18/05 Q1021
TAF FAGG 181600Z 1818/1918 VRB03KT CAVOK TX28/1912Z TN12/1906Z 
     FM190300 28006KT CAVOK 
     FM191100 09006KT CAVOK
       
FAHS 181800Z AUTO 21003KT //// // ////// 16/05 Q1029
FAKM 181800Z 33003KT CAVOK 10/01 Q1030
TAF FAKM 180900Z 1810/1818 VRB03KT CAVOK TX23/1812Z TN10/1818Z
       
FALW 181800Z AUTO 27003KT //// // ////// 16/04 Q1020
FALA 181800Z 17003KT 110V200 CAVOK 11/M04 Q1032 NOSIG
TAF FALA 181600Z 1818/1918 VRB03KT CAVOK TX20/1913Z TN04/1904Z 
     BECMG 1910/1912 13008KT 
     BECMG 1914/1916 VRB03KT
       
FAMM 181800Z 11006KT CAVOK 12/M01 Q1030 NOSIG
TAF AMD FAMM 181425Z 1810/1818 13007KT CAVOK TX22/1812Z TN12/1818Z
       
FAOB 181800Z AUTO 07003KT //// // ////// 11/05 Q1020
TAF FAPM 181800Z 1819/1906 VRB02KT 0800 FG BKN008 TX12/1819Z TN04/1904Z 
     BECMG 1904/1906 33005KT CAVOK
       
FAPN 181600Z AUTO 35003KT //// // ////// 16/M00 Q1028
FAPE 181800Z 05011KT CAVOK 17/15 Q1025 NOSIG
TAF FAPE 181600Z 1818/1918 06012KT CAVOK TX28/1912Z TN11/1904Z 
     BECMG 1900/1902 36010KT 
     FM191500 36005KT CAVOK
       
FAGM 181500Z 09007KT CAVOK 16/M12 Q1030
TAF FARB 180900Z 1810/1818 20010KT CAVOK TX25/1812Z TN18/1818Z 
     BECMG 1816/1818 9999 SCT020
       
FAUT 181800Z 16005KT 5000 BR NSC 12/11 Q1031
TAF FAUT 180900Z 1810/1818 VRB02KT CAVOK TX21/1811Z TN13/1818Z 
     BECMG 1811/1813 09005KT
       
FAUP 181800Z 36006KT CAVOK 17/M02 Q1028 NOSIG
TAF FAUP 181600Z 1818/1918 02010KT CAVOK TX25/1912Z TN06/1904Z
       
FAVV 181800Z AUTO 07005KT //// // ////// 09/M05 Q1031
FAWB 181500Z 06001KT CAVOK 21/M04 Q1028
TAF AMD FAWB 181435Z 1810/1818 VRB03KT CAVOK TX24/1812Z TN12/1818Z